Time,TemperatureF,DewpointF,PressureIn,WindDirection,WindDirectionDegrees,WindSpeedMPH,WindSpeedGustMPH,Humidity,HourlyPrecipIn,Conditions,Clouds,dailyrainin,SoftwareType,DateUTC
2013-04-18 00:02:00,54.0,53.0,29.76,ESE,104,6.0,14.0,98,0.00,,,0.21,,2013-04-18 05:02:00,
2013-04-18 00:12:00,55.0,54.0,29.75,East,100,4.0,8.0,97,0.00,,,0.21,,2013-04-18 05:12:00,
2013-04-18 00:22:00,55.0,54.0,29.75,East,100,4.0,8.0,97,0.00,,,0.21,,2013-04-18 05:22:00,
2013-04-18 00:33:00,52.0,51.0,29.75,NNE,13,7.0,14.0,95,0.00,,,0.21,,2013-04-18 05:33:00,
2013-04-18 00:42:00,52.0,51.0,29.72,ENE,69,4.0,8.0,97,0.00,,,0.21,,2013-04-18 05:42:00,
2013-04-18 00:52:00,52.0,51.0,29.72,ENE,69,4.0,8.0,97,0.00,,,0.21,,2013-04-18 05:52:00,
2013-04-18 01:02:00,53.0,52.0,29.72,North,355,5.0,9.0,97,0.00,,,0.21,,2013-04-18 06:02:00,
2013-04-18 01:12:00,53.0,52.0,29.72,North,355,5.0,9.0,97,0.00,,,0.21,,2013-04-18 06:12:00,
2013-04-18 01:22:00,53.0,52.0,29.71,North,11,4.0,8.0,97,0.00,,,0.21,,2013-04-18 06:22:00,
2013-04-18 01:32:00,54.0,53.0,29.71,NNE,27,3.0,6.0,98,0.00,,,0.21,,2013-04-18 06:32:00,
2013-04-18 01:42:00,54.0,53.0,29.71,NNE,27,3.0,6.0,98,0.00,,,0.21,,2013-04-18 06:42:00,
2013-04-18 01:52:00,54.0,53.0,29.70,NE,47,3.0,7.0,98,0.00,,,0.21,,2013-04-18 06:52:00,
2013-04-18 02:02:00,54.0,53.0,29.68,ENE,69,1.0,4.0,98,0.00,,,0.21,,2013-04-18 07:02:00,
2013-04-18 02:12:00,55.0,54.0,29.67,East,98,2.0,6.0,98,0.00,,,0.21,,2013-04-18 07:12:00,
2013-04-18 02:22:00,55.0,54.0,29.67,East,98,2.0,6.0,98,0.00,,,0.21,,2013-04-18 07:22:00,
2013-04-18 02:32:00,55.0,54.0,29.67,ESE,108,1.0,5.0,98,0.00,,,0.21,,2013-04-18 07:32:00,
2013-04-18 02:42:00,55.0,54.0,29.67,ESE,108,1.0,5.0,98,0.00,,,0.21,,2013-04-18 07:42:00,
2013-04-18 02:52:00,55.0,54.0,29.67,ESE,108,1.0,5.0,98,0.00,,,0.21,,2013-04-18 07:52:00,
2013-04-18 03:02:00,60.0,59.0,29.65,SSE,157,6.0,12.0,98,0.00,,,0.21,,2013-04-18 08:02:00,
2013-04-18 03:12:00,61.0,60.0,29.65,SSE,149,7.0,11.0,98,0.00,,,0.21,,2013-04-18 08:12:00,
2013-04-18 03:22:00,61.0,60.0,29.65,SSE,149,7.0,11.0,98,0.00,,,0.21,,2013-04-18 08:22:00,
2013-04-18 03:32:00,62.0,61.0,29.64,SSE,168,8.0,12.0,96,0.00,,,0.21,,2013-04-18 08:32:00,
2013-04-18 03:42:00,62.0,61.0,29.64,South,172,6.0,10.0,95,0.00,,,0.21,,2013-04-18 08:42:00,
2013-04-18 03:52:00,62.0,61.0,29.64,South,172,6.0,10.0,95,0.00,,,0.21,,2013-04-18 08:52:00,
2013-04-18 04:02:00,62.0,61.0,29.63,South,173,5.0,10.0,95,0.00,,,0.21,,2013-04-18 09:02:00,
2013-04-18 04:12:00,62.0,61.0,29.63,South,183,6.0,12.0,95,0.00,,,0.21,,2013-04-18 09:12:00,
2013-04-18 04:22:00,62.0,61.0,29.63,South,183,6.0,12.0,95,0.00,,,0.21,,2013-04-18 09:22:00,
2013-04-18 04:33:00,62.0,61.0,29.62,South,184,5.0,8.0,95,0.00,,,0.21,,2013-04-18 09:33:00,
2013-04-18 04:43:00,63.0,62.0,29.61,South,169,6.0,10.0,95,0.00,,,0.21,,2013-04-18 09:43:00,
2013-04-18 04:53:00,63.0,62.0,29.61,South,169,6.0,10.0,95,0.00,,,0.21,,2013-04-18 09:53:00,
2013-04-18 05:03:00,63.0,62.0,29.60,SSW,194,6.0,13.0,95,0.00,,,0.21,,2013-04-18 10:03:00,
2013-04-18 05:12:00,63.0,62.0,29.60,SSW,194,6.0,13.0,95,0.00,,,0.21,,2013-04-18 10:12:00,
2013-04-18 05:23:00,63.0,62.0,29.60,South,184,5.0,10.0,95,0.00,,,0.21,,2013-04-18 10:23:00,
2013-04-18 05:32:00,64.0,63.0,29.59,South,171,7.0,11.0,95,0.00,,,0.21,,2013-04-18 10:32:00,
2013-04-18 05:42:00,64.0,63.0,29.59,South,171,7.0,11.0,95,0.00,,,0.21,,2013-04-18 10:42:00,
2013-04-18 05:52:00,63.0,61.0,29.59,SSE,168,6.0,11.0,94,0.00,,,0.21,,2013-04-18 10:52:00,
2013-04-18 06:02:00,63.0,62.0,29.58,SSE,164,8.0,12.0,95,0.00,,,0.21,,2013-04-18 11:02:00,
2013-04-18 06:12:00,64.0,63.0,29.57,South,190,8.0,13.0,95,0.00,,,0.21,,2013-04-18 11:12:00,
2013-04-18 06:22:00,64.0,63.0,29.57,South,190,8.0,13.0,95,0.00,,,0.21,,2013-04-18 11:22:00,
2013-04-18 06:32:00,64.0,62.0,29.55,SSE,159,9.0,15.0,94,0.00,,,0.21,,2013-04-18 11:32:00,
2013-04-18 06:42:00,64.0,62.0,29.55,SSE,159,9.0,15.0,94,0.00,,,0.21,,2013-04-18 11:42:00,
2013-04-18 06:52:00,65.0,63.0,29.53,SSE,168,13.0,20.0,94,0.00,,,0.21,,2013-04-18 11:52:00,
2013-04-18 07:02:00,66.0,64.0,29.53,South,178,13.0,20.0,93,0.00,,,0.21,,2013-04-18 12:02:00,
2013-04-18 07:12:00,66.0,64.0,29.53,South,178,13.0,20.0,93,0.00,,,0.21,,2013-04-18 12:12:00,
2013-04-18 07:22:00,64.0,61.0,29.55,SW,236,6.0,17.0,90,0.00,,,0.21,,2013-04-18 12:22:00,
2013-04-18 07:32:00,64.0,61.0,29.55,SW,236,6.0,17.0,90,0.00,,,0.21,,2013-04-18 12:32:00,
2013-04-18 07:42:00,64.0,61.0,29.55,SW,236,6.0,17.0,90,0.00,,,0.21,,2013-04-18 12:42:00,
2013-04-18 07:52:00,61.0,60.0,29.56,WSW,245,5.0,9.0,96,0.40,,,0.61,,2013-04-18 12:52:00,
2013-04-18 08:02:00,61.0,60.0,29.63,SW,232,6.0,12.0,96,0.43,,,0.64,,2013-04-18 13:02:00,
2013-04-18 08:12:00,61.0,60.0,29.63,SW,232,6.0,12.0,96,0.43,,,0.64,,2013-04-18 13:12:00,
2013-04-18 08:22:00,60.0,59.0,29.62,SSW,201,4.0,15.0,96,0.45,,,0.66,,2013-04-18 13:22:00,
2013-04-18 08:32:00,60.0,59.0,29.63,SSW,211,5.0,10.0,97,0.33,,,0.67,,2013-04-18 13:32:00,
2013-04-18 08:42:00,59.0,58.0,29.60,SW,224,4.0,8.0,97,0.09,,,0.69,,2013-04-18 13:42:00,
2013-04-18 08:52:00,59.0,58.0,29.60,SW,224,4.0,8.0,97,0.09,,,0.69,,2013-04-18 13:52:00,
2013-04-18 09:02:00,59.0,58.0,29.64,SSW,209,8.0,12.0,97,0.09,,,0.72,,2013-04-18 14:02:00,
2013-04-18 09:12:00,59.0,58.0,29.61,West,277,4.0,11.0,97,0.10,,,0.76,,2013-04-18 14:12:00,
2013-04-18 09:22:00,59.0,58.0,29.61,West,277,4.0,11.0,97,0.10,,,0.76,,2013-04-18 14:22:00,
2013-04-18 09:32:00,59.0,58.0,29.62,SSW,203,4.0,9.0,97,0.11,,,0.78,,2013-04-18 14:32:00,
2013-04-18 09:42:00,59.0,58.0,29.62,SSW,203,4.0,9.0,97,0.11,,,0.78,,2013-04-18 14:42:00,
2013-04-18 09:52:00,59.0,58.0,29.62,South,181,6.0,10.0,97,0.13,,,0.82,,2013-04-18 14:52:00,
2013-04-18 10:02:00,59.0,58.0,29.65,SSW,204,7.0,11.0,97,0.13,,,0.85,,2013-04-18 15:02:00,
2013-04-18 10:12:00,59.0,58.0,29.65,SSW,204,7.0,11.0,97,0.13,,,0.85,,2013-04-18 15:12:00,
2013-04-18 10:22:00,60.0,59.0,29.62,SSW,202,5.0,10.0,97,0.12,,,0.88,,2013-04-18 15:22:00,
2013-04-18 10:33:00,60.0,59.0,29.64,SSW,198,9.0,15.0,98,0.13,,,0.91,,2013-04-18 15:33:00,
2013-04-18 10:42:00,60.0,59.0,29.65,SSW,201,8.0,14.0,98,0.11,,,0.93,,2013-04-18 15:42:00,
2013-04-18 10:52:00,60.0,59.0,29.65,SSW,201,8.0,14.0,98,0.11,,,0.93,,2013-04-18 15:52:00,
2013-04-18 11:03:00,60.0,59.0,29.66,South,191,7.0,16.0,98,0.12,,,0.97,,2013-04-18 16:03:00,
2013-04-18 11:13:00,60.0,59.0,29.65,SSW,192,9.0,14.0,98,0.12,,,1.00,,2013-04-18 16:13:00,
2013-04-18 11:22:00,60.0,59.0,29.65,SSW,192,9.0,14.0,98,0.12,,,1.00,,2013-04-18 16:22:00,
2013-04-18 11:33:00,60.0,59.0,29.63,SSW,194,6.0,14.0,98,0.11,,,1.02,,2013-04-18 16:33:00,
2013-04-18 11:43:00,60.0,59.0,29.63,SSW,194,6.0,14.0,98,0.11,,,1.02,,2013-04-18 16:43:00,
2013-04-18 11:52:00,60.0,59.0,29.63,SSW,194,6.0,14.0,98,0.11,,,1.02,,2013-04-18 16:52:00,
2013-04-18 12:02:00,60.0,59.0,29.63,South,183,9.0,13.0,98,0.09,,,1.06,,2013-04-18 17:02:00,
2013-04-18 12:12:00,60.0,59.0,29.63,South,183,9.0,13.0,98,0.09,,,1.06,,2013-04-18 17:12:00,
2013-04-18 12:22:00,60.0,59.0,29.63,South,183,9.0,13.0,98,0.09,,,1.06,,2013-04-18 17:22:00,
2013-04-18 12:33:00,60.0,59.0,29.63,SSW,200,7.0,12.0,98,0.10,,,1.10,,2013-04-18 17:33:00,
2013-04-18 12:42:00,60.0,59.0,29.63,SSW,200,7.0,12.0,98,0.10,,,1.10,,2013-04-18 17:42:00,
2013-04-18 12:52:00,60.0,59.0,29.64,South,177,8.0,14.0,98,0.13,,,1.14,,2013-04-18 17:52:00,
2013-04-18 13:02:00,60.0,59.0,29.64,South,190,8.0,16.0,98,0.15,,,1.19,,2013-04-18 18:02:00,
2013-04-18 13:12:00,60.0,59.0,29.64,South,184,7.0,11.0,98,0.18,,,1.24,,2013-04-18 18:12:00,
2013-04-18 13:22:00,60.0,59.0,29.64,South,184,7.0,11.0,98,0.18,,,1.24,,2013-04-18 18:22:00,
2013-04-18 13:32:00,59.0,58.0,29.65,South,188,9.0,13.0,98,0.17,,,1.27,,2013-04-18 18:32:00,
2013-04-18 13:42:00,59.0,58.0,29.65,South,188,9.0,13.0,98,0.17,,,1.27,,2013-04-18 18:42:00,
2013-04-18 13:52:00,59.0,58.0,29.63,SSE,155,7.0,12.0,98,0.19,,,1.34,,2013-04-18 18:52:00,
2013-04-18 14:02:00,59.0,58.0,29.61,SSE,166,9.0,18.0,97,0.18,,,1.37,,2013-04-18 19:02:00,
2013-04-18 14:12:00,59.0,58.0,29.61,SSE,166,9.0,18.0,97,0.18,,,1.37,,2013-04-18 19:12:00,
2013-04-18 14:22:00,59.0,58.0,29.63,SSE,159,11.0,17.0,98,0.15,,,1.39,,2013-04-18 19:22:00,
2013-04-18 14:32:00,59.0,58.0,29.58,SE,130,9.0,16.0,97,0.12,,,1.46,,2013-04-18 19:32:00,
2013-04-18 14:42:00,59.0,58.0,29.58,SE,130,9.0,16.0,97,0.12,,,1.46,,2013-04-18 19:42:00,
2013-04-18 14:52:00,59.0,58.0,29.58,SE,130,9.0,16.0,97,0.12,,,1.46,,2013-04-18 19:52:00,
2013-04-18 15:02:00,59.0,58.0,29.55,SSE,150,12.0,20.0,97,0.08,,,1.46,,2013-04-18 20:02:00,
2013-04-18 15:12:00,59.0,58.0,29.55,SSE,150,12.0,20.0,97,0.08,,,1.46,,2013-04-18 20:12:00,
2013-04-18 15:22:00,59.0,58.0,29.58,SE,144,17.0,23.0,97,0.07,,,1.47,,2013-04-18 20:22:00,
2013-04-18 15:32:00,59.0,58.0,29.56,SE,125,14.0,22.0,98,0.03,,,1.47,,2013-04-18 20:32:00,
2013-04-18 15:42:00,59.0,58.0,29.55,SE,141,14.0,18.0,97,0.01,,,1.47,,2013-04-18 20:42:00,
2013-04-18 15:52:00,59.0,58.0,29.55,SE,141,14.0,18.0,97,0.01,,,1.47,,2013-04-18 20:52:00,
2013-04-18 16:02:00,60.0,59.0,29.58,SE,140,11.0,19.0,97,0.02,,,1.48,,2013-04-18 21:02:00,
2013-04-18 16:12:00,60.0,59.0,29.58,SE,140,11.0,19.0,97,0.02,,,1.48,,2013-04-18 21:12:00,
2013-04-18 16:22:00,60.0,59.0,29.57,SSE,159,16.0,22.0,96,0.03,,,1.50,,2013-04-18 21:22:00,
2013-04-18 16:32:00,60.0,59.0,29.56,SSE,162,13.0,20.0,96,0.06,,,1.53,,2013-04-18 21:32:00,
2013-04-18 16:43:00,60.0,59.0,29.54,SSE,163,13.0,23.0,96,0.08,,,1.55,,2013-04-18 21:43:00,
2013-04-18 16:52:00,60.0,59.0,29.54,SSE,163,13.0,23.0,96,0.08,,,1.55,,2013-04-18 21:52:00,
2013-04-18 17:02:00,61.0,60.0,29.51,SE,132,18.0,25.0,96,0.08,,,1.56,,2013-04-18 22:02:00,
2013-04-18 17:13:00,61.0,60.0,29.54,SSE,163,14.0,28.0,95,0.06,,,1.56,,2013-04-18 22:13:00,
2013-04-18 17:22:00,61.0,60.0,29.54,SSE,163,14.0,28.0,95,0.06,,,1.56,,2013-04-18 22:22:00,
2013-04-18 17:32:00,61.0,60.0,29.52,SSE,163,15.0,24.0,96,0.04,,,1.43,,2013-04-18 22:32:00,
2013-04-18 17:42:00,61.0,60.0,29.48,SSE,158,16.0,30.0,96,0.06,,,1.47,,2013-04-18 22:42:00,
2013-04-18 17:52:00,61.0,60.0,29.48,SSE,158,16.0,30.0,96,0.06,,,1.47,,2013-04-18 22:52:00,
2013-04-18 18:04:00,61.0,60.0,29.50,South,184,10.0,17.0,96,0.06,,,1.48,,2013-04-18 23:04:00,
2013-04-18 18:12:00,61.0,60.0,29.50,South,184,10.0,17.0,96,0.06,,,1.48,,2013-04-18 23:12:00,
2013-04-18 18:21:00,61.0,60.0,29.53,SW,215,13.0,18.0,96,0.06,,,1.48,,2013-04-18 23:21:00,
2013-04-18 18:32:00,55.0,52.0,29.54,WSW,245,16.0,26.0,91,0.08,,,1.45,,2013-04-18 23:32:00,
2013-04-18 18:42:00,53.0,51.0,29.54,West,265,10.0,27.0,93,0.06,,,1.47,,2013-04-18 23:42:00,
2013-04-18 18:52:00,53.0,51.0,29.54,West,265,10.0,27.0,93,0.06,,,1.47,,2013-04-18 23:52:00,
2013-04-18 19:01:00,52.0,50.0,29.56,WSW,257,9.0,21.0,94,0.05,,,1.47,,2013-04-19 00:01:00,
2013-04-18 19:12:00,52.0,50.0,29.56,WSW,257,9.0,21.0,94,0.05,,,1.47,,2013-04-19 00:12:00,
2013-04-18 19:22:00,50.0,48.0,29.57,WSW,246,11.0,22.0,94,0.05,,,1.48,,2013-04-19 00:22:00,
2013-04-18 19:32:00,49.0,47.0,29.56,SW,229,11.0,21.0,93,0.05,,,1.50,,2013-04-19 00:32:00,
2013-04-18 19:42:00,49.0,47.0,29.56,SW,229,11.0,21.0,93,0.05,,,1.50,,2013-04-19 00:42:00,
2013-04-18 19:51:00,48.0,46.0,29.58,West,261,14.0,25.0,93,0.04,,,1.51,,2013-04-19 00:51:00,
2013-04-18 20:01:00,47.0,45.0,29.60,SW,221,13.0,24.0,93,0.05,,,1.52,,2013-04-19 01:01:00,
2013-04-18 20:11:00,47.0,45.0,29.60,SW,221,13.0,24.0,93,0.05,,,1.52,,2013-04-19 01:11:00,
2013-04-18 20:21:00,46.0,44.0,29.61,West,265,11.0,23.0,92,0.04,,,1.52,,2013-04-19 01:21:00,
2013-04-18 20:32:00,46.0,44.0,29.62,SW,234,11.0,22.0,92,0.02,,,1.52,,2013-04-19 01:32:00,
2013-04-18 20:42:00,46.0,44.0,29.62,SW,234,11.0,22.0,92,0.02,,,1.52,,2013-04-19 01:42:00,
2013-04-18 20:52:00,45.0,43.0,29.61,West,271,10.0,24.0,92,0.01,,,1.52,,2013-04-19 01:52:00,
2013-04-18 21:02:00,45.0,43.0,29.63,West,265,11.0,19.0,92,0.00,,,1.52,,2013-04-19 02:02:00,
2013-04-18 21:11:00,45.0,43.0,29.63,West,265,11.0,19.0,92,0.00,,,1.52,,2013-04-19 02:11:00,
2013-04-18 21:21:00,45.0,42.0,29.62,SW,226,12.0,22.0,89,0.00,,,1.52,,2013-04-19 02:21:00,
2013-04-18 21:32:00,45.0,42.0,29.61,West,267,8.0,22.0,88,0.00,,,1.52,,2013-04-19 02:32:00,
2013-04-18 21:42:00,45.0,42.0,29.61,West,267,8.0,22.0,88,0.00,,,1.52,,2013-04-19 02:42:00,
2013-04-18 21:51:00,44.0,41.0,29.62,WSW,255,10.0,20.0,88,0.00,,,1.52,,2013-04-19 02:51:00,
2013-04-18 22:01:00,44.0,40.0,29.63,WSW,252,9.0,23.0,87,0.00,,,1.52,,2013-04-19 03:01:00,
2013-04-18 22:11:00,44.0,40.0,29.63,WSW,252,9.0,23.0,87,0.00,,,1.52,,2013-04-19 03:11:00,
2013-04-18 22:21:00,44.0,40.0,29.64,WSW,248,10.0,21.0,85,0.00,,,1.52,,2013-04-19 03:21:00,
2013-04-18 22:33:00,44.0,39.0,29.63,WSW,242,13.0,19.0,83,0.00,,,1.52,,2013-04-19 03:33:00,
2013-04-18 22:43:00,44.0,39.0,29.63,WSW,242,13.0,19.0,83,0.00,,,1.52,,2013-04-19 03:43:00,
2013-04-18 22:53:00,44.0,40.0,29.63,West,262,10.0,20.0,85,0.00,,,1.52,,2013-04-19 03:53:00,
2013-04-18 23:03:00,43.0,39.0,29.61,WSW,254,12.0,22.0,85,0.00,,,1.52,,2013-04-19 04:03:00,
2013-04-18 23:13:00,43.0,39.0,29.61,WSW,254,12.0,22.0,85,0.00,,,1.52,,2013-04-19 04:13:00,
2013-04-18 23:23:00,42.0,38.0,29.61,West,267,9.0,22.0,87,0.00,,,1.52,,2013-04-19 04:23:00,
2013-04-18 23:33:00,42.0,39.0,29.62,West,280,6.0,16.0,88,0.00,,,1.52,,2013-04-19 04:33:00,
2013-04-18 23:43:00,42.0,39.0,29.61,West,261,6.0,12.0,88,0.00,,,1.52,,2013-04-19 04:43:00,
2013-04-18 23:52:00,42.0,39.0,29.61,West,261,6.0,12.0,88,0.00,,,1.52,,2013-04-19 04:52:00,